Main page
METAR-TAF:

METAR-TAF

Airports :

Kirkwall, Scotland

Kirkwall Airport

latitude: 58-57N, longitude: 002-54W, elevation: 21 m

Current weather observation

The report was made 34 minutes ago, at 17:20 UTC
Wind 8 kt from the Southeast, varying between East/Southeast and South
Temperature 8°C
Humidity 66%
Pressure 1014 hPa
Visibility 10 km or more
Few clouds at a height of 2900 ft

METAR: EGPA 281720Z 14008KT 110V170 9999 FEW029 08/02 Q1014

Time: 18:54 (17:54 UTC)

Forecast

The report was made 56 minutes ago, at 16:58 UTC
Forecast valid from 28 at 18 UTC to 29 at 03 UTC
Wind 9 kt from the Southeast
Visibility 10 km or more
Few clouds at a height of 1400 ft
Scattered clouds at a height of 4500 ft

TAF: EGPA 281658Z 2818/2903 14009KT 9999 FEW014 SCT045

Weather observations and forecasts of more than 4000 airports (METAR and TAF reports).

The available stations are represented by yellow and red dots on the map.

Hover mouse over dot to see the name of the station.

Then click to see weather observations and forecasts.

To change the map : click on the green buttons with a black cross to zoom in, on the green button with a dash to zoom out, or on the green arrows for adjacent maps.


METAR-TAF: